Time;durP1;ratioP1;P1;durP2;ratioP2;P2;SDS_P1;SDS_P2;PMS_P1;PMS_P2;Temp;Humidity;BMP_temperature;BMP_pressure;BME280_temperature;BME280_humidity;BME280_pressure;Samples;Min_cycle;Max_cycle;Signal;HPM_P1;HPM_P2
2022/03/30 00:01:12;;;;;;;13.60;12.20;;;;;;;10.96;59.93;100112.25;5013687;28;102467;-50
2022/03/30 00:03:39;;;;;;;14.25;12.52;;;;;;;10.95;60.09;100107.91;5013637;28;104003;-50
2022/03/30 00:06:05;;;;;;;14.90;12.73;;;;;;;10.95;60.17;100107.91;5011978;28;102144;-49
2022/03/30 00:08:33;;;;;;;15.05;12.70;;;;;;;10.95;60.52;100108.72;5013567;28;102191;-50
2022/03/30 00:11:00;;;;;;;14.25;12.40;;;;;;;10.96;60.34;100112.25;5014127;28;102101;-49
2022/03/30 00:13:30;;;;;;;12.75;11.45;;;;;;;10.94;59.97;100098.94;5013736;28;103901;-50
2022/03/30 00:15:56;;;;;;;12.55;11.02;;;;;;;10.95;60.17;100107.91;5013706;28;102205;-50
2022/03/30 00:18:23;;;;;;;14.70;12.98;;;;;;;10.95;60.45;100099.75;5013938;28;101874;-50
2022/03/30 00:20:50;;;;;;;15.07;12.32;;;;;;;10.96;60.50;100106.81;5012353;28;102141;-50
2022/03/30 00:23:16;;;;;;;15.93;13.10;;;;;;;10.94;59.96;100098.94;5012965;28;104078;-50
2022/03/30 00:25:43;;;;;;;15.38;12.45;;;;;;;10.95;60.36;100099.75;5013110;28;102011;-50
2022/03/30 00:28:10;;;;;;;14.05;12.10;;;;;;;10.94;60.45;100098.13;5013976;28;102562;-49
2022/03/30 00:30:39;;;;;;;14.40;12.73;;;;;;;10.95;60.42;100105.19;5006140;28;102583;-50
2022/03/30 00:33:06;;;;;;;16.10;13.05;;;;;;;10.94;60.39;100101.66;4993349;28;103916;-50
2022/03/30 00:35:32;;;;;;;16.30;13.48;;;;;;;10.95;60.30;100099.75;5003462;28;102391;-50
2022/03/30 00:38:00;;;;;;;14.38;12.75;;;;;;;10.94;60.18;100098.13;5013192;28;102118;-50
2022/03/30 00:40:27;;;;;;;15.10;12.65;;;;;;;10.95;60.60;100105.19;5013547;28;102139;-50
2022/03/30 00:42:54;;;;;;;15.45;13.25;;;;;;;10.94;60.50;100093.50;4994091;28;103882;-50
2022/03/30 00:45:23;;;;;;;16.65;12.70;;;;;;;10.94;59.99;100092.69;5013449;28;101787;-50
2022/03/30 00:47:51;;;;;;;14.95;13.18;;;;;;;10.94;60.36;100098.13;5010085;28;102347;-49
2022/03/30 00:50:21;;;;;;;14.48;12.68;;;;;;;10.94;60.21;100103.56;5013092;28;102078;-50
2022/03/30 00:52:54;;;;;;;16.10;13.33;;;;;;;10.94;60.28;100092.69;5010588;28;103934;-50
2022/03/30 00:55:21;;;;;;;13.77;12.30;;;;;;;10.94;60.14;100098.13;5013173;28;102160;-50
2022/03/30 00:57:48;;;;;;;16.13;13.43;;;;;;;10.94;60.24;100098.13;5011862;28;102419;-50
2022/03/30 01:00:16;;;;;;;16.30;14.35;;;;;;;10.93;60.49;100096.53;5014501;28;102294;-49
2022/03/30 01:02:46;;;;;;;15.98;13.27;;;;;;;10.93;60.52;100091.88;5010530;28;103703;-50
2022/03/30 01:05:15;;;;;;;15.88;12.43;;;;;;;10.94;60.24;100081.81;5029256;28;102310;-50
2022/03/30 01:07:50;;;;;;;14.88;13.05;;;;;;;10.94;60.26;100079.06;5032865;27;102333;-50
2022/03/30 01:10:19;;;;;;;16.98;14.50;;;;;;;10.94;59.99;100087.25;5034997;27;102382;-50
2022/03/30 01:12:48;;;;;;;14.93;13.30;;;;;;;10.93;60.13;100081.00;5032068;27;103898;-50
2022/03/30 01:15:15;;;;;;;13.90;12.40;;;;;;;10.93;60.18;100081.00;5033286;27;102415;-50
2022/03/30 01:17:42;;;;;;;16.33;13.52;;;;;;;10.94;60.35;100076.34;5012254;27;102419;-50
2022/03/30 01:20:11;;;;;;;16.98;13.73;;;;;;;10.93;60.45;100074.75;5013828;28;102105;-50
2022/03/30 01:22:40;;;;;;;14.93;12.77;;;;;;;10.93;60.60;100074.75;5000175;28;104075;-50
2022/03/30 01:25:08;;;;;;;12.95;11.73;;;;;;;10.93;60.21;100070.09;5013106;28;102428;-50
2022/03/30 01:27:35;;;;;;;15.10;12.55;;;;;;;10.92;60.04;100067.66;4998085;28;102781;-50
2022/03/30 01:32:53;;;;;;;14.80;13.25;;;;;;;10.92;60.13;100064.94;4992086;28;103909;-49
2022/03/30 01:35:20;;;;;;;14.50;13.00;;;;;;;10.92;60.53;100067.66;4992690;28;102337;-50
2022/03/30 01:37:48;;;;;;;15.68;14.00;;;;;;;10.93;60.00;100069.28;4992104;28;102590;-49
2022/03/30 01:40:15;;;;;;;15.07;13.23;;;;;;;10.92;60.20;100067.66;4992940;28;102409;-49
2022/03/30 01:42:42;;;;;;;15.50;13.40;;;;;;;10.92;60.35;100067.66;4991952;28;104192;-50
2022/03/30 01:45:11;;;;;;;14.63;13.13;;;;;;;10.92;60.52;100068.47;4994050;28;102073;-50
2022/03/30 01:47:41;;;;;;;15.75;14.05;;;;;;;10.92;60.61;100067.66;5013577;28;101963;-50
2022/03/30 01:50:09;;;;;;;;;;;;;;;10.93;60.27;100063.84;5016357;28;102539;-49
2022/03/30 01:52:36;;;;;;;16.40;14.53;;;;;;;10.92;60.10;100063.00;5013776;28;102931;-50
2022/03/30 01:55:05;;;;;;;16.77;13.80;;;;;;;10.93;60.24;100070.09;5014855;28;101978;-50
2022/03/30 01:57:31;;;;;;;14.88;13.35;;;;;;;10.93;60.64;100074.75;5012247;28;101979;-50
2022/03/30 01:59:59;;;;;;;13.85;12.27;;;;;;;10.93;60.30;100069.28;5012452;28;102571;-50
2022/03/30 02:02:26;;;;;;;15.77;13.32;;;;;;;10.92;60.57;100073.91;5011616;28;103970;-50
2022/03/30 02:04:52;;;;;;;18.65;13.48;;;;;;;10.92;60.56;100076.63;5011309;28;102027;-50
2022/03/30 02:07:20;;;;;;;16.00;13.63;;;;;;;10.93;59.97;100080.19;5010166;28;101954;-50
2022/03/30 02:09:49;;;;;;;15.63;13.30;;;;;;;10.93;60.49;100074.75;5012776;28;102791;-50
2022/03/30 02:12:17;;;;;;;14.05;12.57;;;;;;;10.92;60.21;100067.66;5010742;28;103995;-50
2022/03/30 02:14:44;;;;;;;15.55;13.43;;;;;;;10.92;60.58;100067.66;5012479;28;101908;-50
2022/03/30 02:17:10;;;;;;;14.70;13.18;;;;;;;10.92;60.09;100068.47;4996766;28;102486;-50
2022/03/30 02:19:37;;;;;;;17.23;14.00;;;;;;;10.91;60.64;100060.59;5013324;28;102415;-50
2022/03/30 02:22:05;;;;;;;15.63;13.82;;;;;;;10.92;60.72;100062.22;4996074;28;104111;-50
2022/03/30 02:24:31;;;;;;;15.45;13.45;;;;;;;10.91;60.57;100066.03;4991878;28;102080;-51
2022/03/30 02:26:58;;;;;;;14.93;12.57;;;;;;;10.91;60.27;100066.84;4991757;28;102346;-51
2022/03/30 02:29:25;;;;;;;15.10;13.30;;;;;;;10.92;60.45;100070.38;4992760;28;102551;-51
2022/03/30 02:31:52;;;;;;;15.43;13.23;;;;;;;10.91;60.50;100066.03;4991040;28;103871;-51
2022/03/30 02:34:19;;;;;;;16.23;13.90;;;;;;;10.91;60.30;100057.88;4992783;28;101890;-51
2022/03/30 02:36:45;;;;;;;16.40;14.02;;;;;;;10.92;60.64;100056.75;5004320;28;102222;-51
2022/03/30 02:39:14;;;;;;;15.55;13.93;;;;;;;10.91;60.40;100060.59;5011953;28;102672;-51
2022/03/30 02:41:40;;;;;;;17.20;14.02;;;;;;;10.92;60.82;100062.22;5009769;28;104087;-51
2022/03/30 02:44:08;;;;;;;14.80;13.20;;;;;;;10.91;60.62;100053.22;5012356;28;102291;-51
2022/03/30 02:46:36;;;;;;;16.27;14.43;;;;;;;10.92;60.86;100054.03;5011240;28;102330;-50
2022/03/30 02:49:03;;;;;;;15.73;14.00;;;;;;;10.90;60.43;100053.53;5010784;28;102838;-50
2022/03/30 02:51:30;;;;;;;15.93;13.85;;;;;;;10.91;60.57;100055.97;4996558;28;103933;-51
2022/03/30 02:53:57;;;;;;;17.65;14.30;;;;;;;10.91;60.60;100055.16;4999838;28;103107;-50
2022/03/30 02:56:24;;;;;;;15.13;13.60;;;;;;;10.91;60.73;100055.16;5012173;28;102132;-52
2022/03/30 02:58:50;;;;;;;15.98;13.40;;;;;;;10.91;60.25;100055.97;5018219;28;102249;-50
2022/03/30 03:01:17;;;;;;;15.98;13.63;;;;;;;10.91;60.62;100052.44;5030008;28;103856;-51
2022/03/30 03:03:46;;;;;;;16.27;14.25;;;;;;;10.91;60.89;100066.84;5010695;28;102421;-51
2022/03/30 03:06:12;;;;;;;15.60;14.00;;;;;;;10.90;60.49;100062.50;5011470;28;102463;-51
2022/03/30 03:08:48;;;;;;;14.98;13.48;;;;;;;10.91;60.47;100066.03;5012965;28;102388;-51
2022/03/30 03:11:14;;;;;;;16.30;13.90;;;;;;;10.91;60.66;100066.03;5011304;28;103929;-51
2022/03/30 03:13:42;;;;;;;15.70;14.10;;;;;;;10.91;60.41;100066.03;5011922;28;102272;-51
2022/03/30 03:16:11;;;;;;;17.83;14.60;;;;;;;10.91;60.64;100071.47;5012336;28;102366;-51
2022/03/30 03:18:38;;;;;;;13.98;12.30;;;;;;;10.90;60.30;100070.69;4996052;28;102120;-50
2022/03/30 03:21:06;;;;;;;15.48;13.75;;;;;;;10.91;60.96;100071.47;4994569;28;103897;-51
2022/03/30 03:23:33;;;;;;;15.70;13.45;;;;;;;10.91;60.86;100072.28;4994820;28;102111;-51
2022/03/30 03:25:59;;;;;;;15.05;13.38;;;;;;;10.91;60.28;100076.94;4996099;28;102957;-51
2022/03/30 03:28:26;;;;;;;17.60;14.68;;;;;;;10.91;60.42;100087.81;4995371;28;102127;-51
2022/03/30 03:30:52;;;;;;;16.17;14.35;;;;;;;10.91;60.80;100083.19;4994071;28;103905;-51
2022/03/30 03:33:19;;;;;;;16.05;14.32;;;;;;;10.90;60.80;100078.84;4995019;28;101763;-51
2022/03/30 03:35:46;;;;;;;16.65;13.98;;;;;;;10.91;60.69;100087.81;4995325;28;102254;-50
2022/03/30 03:38:14;;;;;;;16.10;14.48;;;;;;;10.90;60.94;100080.75;4995259;28;102189;-51
2022/03/30 03:40:40;;;;;;;15.52;13.88;;;;;;;10.90;60.86;100087.00;4993911;28;102947;-51
2022/03/30 03:43:09;;;;;;;16.48;13.93;;;;;;;10.90;60.71;100089.72;4994906;28;101997;-51
2022/03/30 03:45:35;;;;;;;15.70;13.68;;;;;;;10.90;60.76;100091.66;4994384;28;102143;-51
2022/03/30 03:48:02;;;;;;;18.27;14.85;;;;;;;10.91;60.97;100095.97;4995404;28;102171;-51
2022/03/30 03:50:29;;;;;;;15.07;13.48;;;;;;;10.90;60.29;100099.81;4994523;28;103920;-50
2022/03/30 03:52:56;;;;;;;17.63;14.98;;;;;;;10.90;60.51;100107.97;4993409;28;102276;-51
2022/03/30 03:55:24;;;;;;;16.60;14.60;;;;;;;10.90;60.83;100102.53;5009654;28;102332;-51
2022/03/30 03:57:52;;;;;;;15.50;13.77;;;;;;;10.90;60.73;100103.34;5002320;28;102296;-51
2022/03/30 04:00:18;;;;;;;16.40;13.93;;;;;;;10.89;60.41;100088.13;5007117;28;103483;-51
2022/03/30 04:02:46;;;;;;;15.85;14.25;;;;;;;10.89;60.49;100095.44;5014072;28;101935;-51
2022/03/30 04:05:13;;;;;;;15.60;13.93;;;;;;;10.89;60.76;100104.44;5013920;28;102012;-51
2022/03/30 04:07:41;;;;;;;17.03;13.90;;;;;;;10.90;60.43;100102.53;5012622;28;102564;-51
2022/03/30 04:10:09;;;;;;;16.10;14.30;;;;;;;10.89;60.77;100100.91;4995654;28;104587;-50
2022/03/30 04:12:46;;;;;;;16.08;14.43;;;;;;;10.89;60.54;100107.19;5013207;28;102443;-51
2022/03/30 04:15:14;;;;;;;16.25;14.55;;;;;;;10.90;60.42;100102.53;5014042;28;102321;-51
2022/03/30 04:17:44;;;;;;;16.92;15.13;;;;;;;10.90;60.33;100118.88;5013354;28;102928;-50
2022/03/30 04:20:12;;;;;;;17.70;14.70;;;;;;;10.89;60.68;100112.63;5012175;28;103934;-51
2022/03/30 04:22:43;;;;;;;15.98;14.30;;;;;;;10.89;60.64;100118.06;5002819;28;102226;-51
2022/03/30 04:25:10;;;;;;;17.67;15.43;;;;;;;10.90;60.92;100124.31;5013525;28;102127;-51
2022/03/30 04:27:45;;;;;;;16.23;14.35;;;;;;;10.89;60.51;100128.13;5012975;28;102486;-51
2022/03/30 04:30:12;;;;;;;16.35;13.77;;;;;;;10.89;60.64;100133.56;5013595;28;103969;-51
2022/03/30 04:32:40;;;;;;;15.50;13.85;;;;;;;10.90;60.72;100140.66;5013309;28;102533;-51
2022/03/30 04:35:08;;;;;;;15.98;14.35;;;;;;;10.89;60.71;100122.66;5013765;28;102341;-51
2022/03/30 04:37:35;;;;;;;16.73;14.85;;;;;;;10.88;60.77;100126.50;5010828;28;102461;-51
2022/03/30 04:40:02;;;;;;;16.77;14.57;;;;;;;10.89;60.60;100120.78;5013315;28;104343;-51
2022/03/30 04:42:29;;;;;;;16.70;14.90;;;;;;;10.90;60.60;100129.75;5013197;28;102573;-51
2022/03/30 04:44:56;;;;;;;16.45;14.75;;;;;;;10.89;61.30;100128.13;5008308;28;102657;-51
2022/03/30 04:47:23;;;;;;;16.27;14.48;;;;;;;10.91;60.48;100128.66;4997058;28;101951;-51
2022/03/30 04:49:50;;;;;;;16.08;14.27;;;;;;;10.91;60.88;100125.94;5012738;28;103769;-51
2022/03/30 04:52:18;;;;;;;15.77;14.07;;;;;;;10.91;60.55;100142.25;5013191;28;102323;-51
2022/03/30 04:54:45;;;;;;;15.87;14.27;;;;;;;10.91;60.40;100145.78;5013004;28;101976;-51
2022/03/30 04:57:11;;;;;;;18.70;15.63;;;;;;;10.91;60.06;100153.16;5013904;28;101986;-51
2022/03/30 04:59:38;;;;;;;18.25;15.50;;;;;;;10.91;60.51;100144.97;5004430;28;104212;-51
2022/03/30 05:02:06;;;;;;;16.48;14.07;;;;;;;10.91;60.30;100153.16;4993192;28;102469;-50
2022/03/30 05:04:33;;;;;;;17.50;15.07;;;;;;;10.91;60.45;100148.50;4995950;28;102464;-51
2022/03/30 05:07:00;;;;;;;17.17;15.20;;;;;;;10.91;60.34;100143.06;5013393;28;102142;-51
2022/03/30 05:09:26;;;;;;;18.20;15.55;;;;;;;10.93;60.63;100150.97;5012055;28;103838;-51
2022/03/30 05:11:53;;;;;;;18.20;15.70;;;;;;;10.92;60.53;100146.59;5012713;28;101906;-51
2022/03/30 05:14:19;;;;;;;18.73;16.30;;;;;;;10.92;60.29;100150.13;5013039;28;102427;-51
2022/03/30 05:16:46;;;;;;;22.50;16.98;;;;;;;10.93;60.29;100140.06;5010333;28;102239;-51
2022/03/30 05:19:14;;;;;;;25.55;17.85;;;;;;;10.93;60.31;100135.44;4993069;28;103930;-51
2022/03/30 05:21:40;;;;;;;24.08;18.95;;;;;;;10.94;60.00;100136.25;5004681;28;102328;-51
2022/03/30 05:24:07;;;;;;;23.20;18.55;;;;;;;10.94;59.81;100131.59;5011851;28;101926;-51
2022/03/30 05:26:35;;;;;;;23.13;18.40;;;;;;;10.95;59.94;100126.97;4993170;28;102546;-51
2022/03/30 05:29:01;;;;;;;20.60;17.80;;;;;;;10.96;60.00;100134.03;4991673;28;103766;-51
2022/03/30 05:31:28;;;;;;;22.13;19.58;;;;;;;10.96;59.84;100134.03;4993035;28;101927;-51
2022/03/30 05:33:55;;;;;;;22.80;19.13;;;;;;;10.97;60.17;100135.69;4992221;28;102003;-51
2022/03/30 05:36:23;;;;;;;23.05;18.45;;;;;;;10.98;59.85;100134.56;4998875;28;102150;-51
2022/03/30 05:38:50;;;;;;;21.70;17.67;;;;;;;10.98;59.88;100129.94;4994290;28;103757;-51
2022/03/30 05:41:17;;;;;;;21.98;17.58;;;;;;;10.98;60.17;100131.84;4991888;28;104402;-51
2022/03/30 05:43:44;;;;;;;24.13;19.30;;;;;;;10.99;60.32;100125.28;4993638;28;102560;-51
2022/03/30 05:46:10;;;;;;;22.33;19.00;;;;;;;11.00;59.96;100119.56;4998774;28;102304;-51
2022/03/30 05:48:38;;;;;;;22.90;18.50;;;;;;;11.01;60.10;100126.63;4996506;28;103854;-51
2022/03/30 05:51:05;;;;;;;24.73;18.83;;;;;;;11.02;59.95;100124.72;5001999;28;102513;-51
2022/03/30 05:53:33;;;;;;;25.25;19.65;;;;;;;11.03;59.69;100115.44;5003571;28;102613;-51
2022/03/30 05:56:00;;;;;;;23.20;19.83;;;;;;;11.03;60.11;100115.44;5011207;28;102349;-52
2022/03/30 05:58:27;;;;;;;23.90;19.98;;;;;;;11.04;60.07;100119.81;4996069;28;103681;-51
2022/03/30 06:00:54;;;;;;;22.88;19.42;;;;;;;11.05;59.90;100115.97;4995605;28;101867;-51
2022/03/30 06:03:20;;;;;;;26.23;20.20;;;;;;;11.05;59.82;100122.22;5004006;28;102493;-51
2022/03/30 06:05:51;;;;;;;24.80;18.98;;;;;;;11.06;60.21;100123.03;5012158;28;102086;-51
2022/03/30 06:08:17;;;;;;;24.08;19.33;;;;;;;11.07;59.71;100116.47;5009547;28;103924;-51
2022/03/30 06:10:45;;;;;;;24.70;20.35;;;;;;;11.07;59.65;100122.78;5011754;28;102389;-51
2022/03/30 06:13:12;;;;;;;25.45;20.85;;;;;;;11.08;59.98;100123.56;5010655;28;102012;-51
2022/03/30 06:15:45;;;;;;;26.42;19.90;;;;;;;11.09;60.20;100127.91;5005020;28;102610;-51
2022/03/30 06:18:13;;;;;;;23.58;20.95;;;;;;;11.10;59.90;100129.53;5010721;28;104011;-51
2022/03/30 06:20:41;;;;;;;24.57;20.67;;;;;;;11.10;59.84;100124.06;5011963;28;102064;-51
2022/03/30 06:23:08;;;;;;;27.85;21.25;;;;;;;11.11;60.08;100128.44;5010856;28;102286;-51
2022/03/30 06:25:35;;;;;;;28.15;21.08;;;;;;;11.11;59.90;100125.72;5011448;28;102391;-51
2022/03/30 06:28:03;;;;;;;24.60;20.80;;;;;;;11.13;60.10;100126.22;5010975;28;103857;-51
2022/03/30 06:30:32;;;;;;;27.63;21.55;;;;;;;11.15;59.88;100131.41;5012101;28;102273;-51
2022/03/30 06:32:59;;;;;;;23.40;20.50;;;;;;;11.15;60.16;100132.22;5011056;28;102290;-51
2022/03/30 06:35:26;;;;;;;23.58;19.88;;;;;;;11.15;60.21;100126.75;5011519;28;102199;-52
2022/03/30 06:37:53;;;;;;;26.70;20.45;;;;;;;11.15;59.76;100126.75;4993464;28;104250;-52
2022/03/30 06:40:19;;;;;;;23.58;19.17;;;;;;;11.18;59.92;100131.63;5001994;28;102127;-51
2022/03/30 06:42:48;;;;;;;22.90;19.58;;;;;;;11.19;59.81;100127.81;5010405;28;102421;-51
2022/03/30 06:45:16;;;;;;;20.40;18.17;;;;;;;11.19;59.81;100127.81;5012588;28;102579;-51
2022/03/30 06:47:43;;;;;;;21.55;18.02;;;;;;;11.20;59.78;100126.69;4993284;28;103882;-51
2022/03/30 06:50:11;;;;;;;21.17;17.70;;;;;;;11.21;59.98;100120.13;5002568;28;102108;-51
2022/03/30 06:52:37;;;;;;;21.45;18.73;;;;;;;11.22;60.03;100121.78;5003216;28;101873;-51
2022/03/30 06:55:06;;;;;;;23.02;18.85;;;;;;;11.22;60.21;100119.06;5001232;28;102182;-52
2022/03/30 06:57:33;;;;;;;22.35;19.10;;;;;;;11.24;60.21;100121.47;4991505;28;103578;-51
2022/03/30 06:59:59;;;;;;;23.10;19.50;;;;;;;11.24;59.76;100118.75;4995681;28;102346;-51
2022/03/30 07:02:27;;;;;;;23.85;19.75;;;;;;;11.25;59.93;100120.38;4990650;28;102359;-50
2022/03/30 07:04:54;;;;;;;22.33;18.40;;;;;;;11.25;60.21;100115.75;4992010;28;102288;-51
2022/03/30 07:10:16;;;;;;;20.75;17.80;;;;;;;11.26;59.99;100122.81;5003801;28;102617;-51
2022/03/30 07:12:47;;;;;;;21.17;18.88;;;;;;;11.28;59.78;100125.25;5012272;28;102080;-51
2022/03/30 07:15:15;;;;;;;20.33;17.35;;;;;;;11.29;60.19;100132.34;5013679;28;102189;-51
2022/03/30 07:17:48;;;;;;;22.00;17.35;;;;;;;11.29;59.77;100135.88;5003902;28;103860;-51
2022/03/30 07:20:14;;;;;;;20.60;17.17;;;;;;;11.31;60.18;100130.91;4992412;28;102197;-51
2022/03/30 07:23:02;;;;;;;21.05;16.98;;;;;;;11.33;59.76;100132.56;4990837;28;102559;-51
2022/03/30 07:25:30;;;;;;;21.63;18.35;;;;;;;11.34;60.03;100123.28;4994569;28;102419;-51
2022/03/30 07:27:58;;;;;;;20.95;18.02;;;;;;;11.35;59.85;100131.16;5000196;28;103825;-51
2022/03/30 07:30:26;;;;;;;22.92;19.17;;;;;;;11.37;59.75;100128.16;5011717;28;101967;-51
2022/03/30 07:32:56;;;;;;;20.33;17.15;;;;;;;11.37;60.26;100128.16;5003147;28;102770;-51
2022/03/30 07:35:24;;;;;;;20.08;16.77;;;;;;;11.36;60.05;100132.78;4992181;28;102812;-51
2022/03/30 07:37:51;;;;;;;18.60;16.52;;;;;;;11.39;60.07;100128.66;4990045;28;103941;-51
2022/03/30 07:40:19;;;;;;;21.20;17.15;;;;;;;11.38;59.89;100129.75;4991586;28;102116;-51
2022/03/30 07:42:47;;;;;;;22.73;17.40;;;;;;;11.40;60.13;100138.47;4990035;28;102244;-51
2022/03/30 07:45:15;;;;;;;23.17;17.53;;;;;;;11.40;60.11;100122.13;4992057;28;102324;-51
2022/03/30 07:47:41;;;;;;;21.05;17.50;;;;;;;11.40;59.77;100117.47;4990097;28;103966;-51
2022/03/30 07:50:11;;;;;;;20.70;18.50;;;;;;;11.43;60.13;100121.53;5001180;28;102217;-51
2022/03/30 07:52:39;;;;;;;22.40;18.13;;;;;;;11.43;60.07;100119.63;4991881;28;103648;-51
2022/03/30 07:55:08;;;;;;;22.05;18.13;;;;;;;11.45;60.26;100124.78;4999561;28;102149;-51
2022/03/30 07:57:37;;;;;;;22.70;18.30;;;;;;;11.46;60.33;100116.28;5006023;28;103904;-51
2022/03/30 08:00:07;;;;;;;23.07;18.60;;;;;;;11.46;60.01;100121.75;5005007;28;102121;-51
2022/03/30 08:02:34;;;;;;;21.67;18.60;;;;;;;11.48;60.23;100113.28;4991901;28;102422;-51
2022/03/30 08:05:02;;;;;;;21.75;17.92;;;;;;;11.49;60.02;100121.16;5011530;28;102701;-51
2022/03/30 08:07:30;;;;;;;20.05;17.35;;;;;;;11.51;60.29;100121.69;5013398;28;104018;-53
2022/03/30 08:09:57;;;;;;;22.75;18.65;;;;;;;11.52;60.22;100114.34;5002528;28;102285;-51
2022/03/30 08:12:25;;;;;;;20.52;16.95;;;;;;;11.54;60.08;100117.59;5006657;28;102385;-51
2022/03/30 08:14:53;;;;;;;19.58;16.67;;;;;;;11.54;60.09;100117.59;5011530;28;102366;-51
2022/03/30 08:17:20;;;;;;;19.73;17.02;;;;;;;11.54;60.07;100121.13;5006851;28;104696;-51
2022/03/30 08:19:46;;;;;;;21.20;16.15;;;;;;;11.56;60.03;100120.81;5011996;28;102006;-51
2022/03/30 08:22:26;;;;;;;21.08;16.20;;;;;;;11.57;59.81;100116.16;5004578;28;102405;-52
2022/03/30 08:24:56;;;;;;;21.17;16.27;;;;;;;11.58;60.13;100118.63;4996806;28;102186;-51
2022/03/30 08:27:24;;;;;;;18.48;16.58;;;;;;;11.60;59.90;100126.50;5004533;28;103934;-50
2022/03/30 08:29:53;;;;;;;21.30;16.77;;;;;;;11.61;60.05;100128.94;5002296;28;103659;-50
2022/03/30 08:32:21;;;;;;;21.40;16.80;;;;;;;11.61;60.10;100120.78;4998088;28;102414;-51
2022/03/30 08:34:49;;;;;;;21.48;17.30;;;;;;;11.61;59.82;100123.50;5008763;28;102167;-51
2022/03/30 08:37:15;;;;;;;18.65;16.23;;;;;;;11.64;60.11;100130.25;5012201;28;104195;-51
2022/03/30 08:39:44;;;;;;;23.15;17.73;;;;;;;11.64;60.07;100127.53;5013520;27;101772;-51
2022/03/30 08:42:14;;;;;;;20.33;16.40;;;;;;;11.63;60.03;100120.47;5012977;28;102044;-51
2022/03/30 08:44:41;;;;;;;19.65;16.40;;;;;;;11.65;60.14;100121.81;5014037;28;102348;-51
2022/03/30 08:47:10;;;;;;;20.60;16.77;;;;;;;11.64;60.38;100117.44;5009008;28;104131;-50
2022/03/30 08:49:37;;;;;;;19.83;15.43;;;;;;;11.67;60.07;100122.31;4993020;28;102389;-51
2022/03/30 08:52:07;;;;;;;19.70;15.70;;;;;;;11.66;60.02;100125.34;4993407;28;101856;-51
2022/03/30 08:54:33;;;;;;;;;;;;;;;11.67;59.84;100114.13;4997345;28;102188;-51
2022/03/30 08:57:00;;;;;;;19.15;16.05;;;;;;;11.67;60.14;100111.41;5011755;28;103932;-51
2022/03/30 08:59:28;;;;;;;20.08;15.85;;;;;;;11.67;59.91;100105.94;5013073;28;102441;-51
2022/03/30 09:01:57;;;;;;;18.55;16.50;;;;;;;11.68;60.15;100110.28;5012913;28;102046;-51
2022/03/30 09:04:25;;;;;;;20.88;16.50;;;;;;;11.69;60.03;100098.31;4996132;28;102400;-51
2022/03/30 09:06:54;;;;;;;19.13;15.82;;;;;;;11.69;59.93;100095.56;5012395;28;104046;-51
2022/03/30 09:09:29;;;;;;;21.05;15.98;;;;;;;11.69;60.12;100098.31;5013100;28;101941;-51
2022/03/30 09:11:56;;;;;;;19.23;16.00;;;;;;;11.70;59.89;100096.38;5013075;28;102259;-51
2022/03/30 09:14:25;;;;;;;18.08;15.75;;;;;;;11.70;59.97;100090.94;5012104;28;102489;-51
2022/03/30 09:16:55;;;;;;;17.67;15.77;;;;;;;11.70;59.97;100089.00;4997780;28;104193;-51
2022/03/30 09:19:23;;;;;;;20.65;16.17;;;;;;;11.70;60.14;100080.84;4992779;28;102442;-51
2022/03/30 09:21:52;;;;;;;44.05;16.48;;;;;;;11.71;60.27;100082.44;4992838;28;102369;-51
2022/03/30 09:24:20;;;;;;;27.55;15.60;;;;;;;11.70;59.99;100078.09;4993346;28;102718;-51
2022/03/30 09:26:47;;;;;;;24.15;15.80;;;;;;;11.71;60.10;100076.19;4992576;28;104007;-51
2022/03/30 09:29:14;;;;;;;19.60;15.52;;;;;;;11.72;59.78;100085.97;4992550;28;102191;-51
2022/03/30 09:31:41;;;;;;;30.15;15.52;;;;;;;11.72;59.77;100075.91;4994033;28;102547;-51
2022/03/30 09:34:09;;;;;;;19.88;15.20;;;;;;;11.71;60.25;100085.16;4993054;28;102533;-51
2022/03/30 09:36:37;;;;;;;20.02;15.60;;;;;;;11.73;60.20;100082.16;4992256;28;104007;-51
2022/03/30 09:39:05;;;;;;;18.52;15.38;;;;;;;11.72;59.98;100075.91;4992436;28;102161;-51
2022/03/30 09:41:49;;;;;;;19.48;15.57;;;;;;;11.73;59.84;100076.72;4998611;28;102208;-51
2022/03/30 09:44:16;;;;;;;17.20;15.27;;;;;;;11.73;60.15;100076.72;5007497;28;102732;-51
2022/03/30 09:46:54;;;;;;;17.40;14.85;;;;;;;11.72;60.07;100067.72;5000599;28;104122;-51
2022/03/30 09:49:37;;;;;;;18.60;15.43;;;;;;;11.72;59.86;100067.72;5000044;28;102111;-51
2022/03/30 09:52:16;;;;;;;17.77;14.70;;;;;;;11.72;59.93;100059.56;5012769;28;102426;-51
2022/03/30 09:54:44;;;;;;;18.30;13.97;;;;;;;11.72;60.21;100059.56;5012921;28;102529;-52
2022/03/30 09:57:12;;;;;;;18.27;15.00;;;;;;;11.74;60.06;100062.78;5011781;28;103920;-52
2022/03/30 09:59:58;;;;;;;17.52;14.75;;;;;;;11.73;59.95;100060.34;5010405;28;102593;-51
2022/03/30 10:02:25;;;;;;;17.33;14.70;;;;;;;11.74;59.77;100046.41;4997993;28;102316;-51
2022/03/30 10:04:54;;;;;;;17.00;14.00;;;;;;;11.74;59.96;100053.78;5006552;28;102379;-51
2022/03/30 10:07:22;;;;;;;16.73;14.90;;;;;;;11.74;59.92;100049.16;4997560;28;104684;-51
2022/03/30 10:09:49;;;;;;;17.83;13.98;;;;;;;11.74;59.69;100040.16;4998254;28;102507;-52
2022/03/30 10:12:19;;;;;;;14.77;13.23;;;;;;;11.73;60.03;100039.34;4998558;28;102573;-51
2022/03/30 10:14:48;;;;;;;17.00;14.10;;;;;;;11.73;60.06;100033.91;5011994;28;102104;-51
2022/03/30 10:17:14;;;;;;;19.05;14.65;;;;;;;11.74;59.86;100040.16;5008678;28;104654;-51
2022/03/30 10:19:46;;;;;;;15.90;14.13;;;;;;;11.74;59.95;100037.44;5010257;28;102205;-51
2022/03/30 10:22:34;;;;;;;15.93;14.00;;;;;;;11.73;59.85;100036.63;4992155;28;102489;-51
2022/03/30 10:25:18;;;;;;;16.52;13.77;;;;;;;11.73;59.79;100033.91;4991373;28;101970;-51
2022/03/30 10:27:52;;;;;;;17.35;13.85;;;;;;;11.73;59.87;100031.19;4990193;28;104173;-51
2022/03/30 10:30:24;;;;;;;18.23;14.20;;;;;;;11.74;59.61;100040.16;4999456;28;102293;-51
2022/03/30 10:32:59;;;;;;;15.48;13.43;;;;;;;11.72;59.61;100032.28;5009336;28;102019;-51
2022/03/30 10:35:38;;;;;;;16.88;13.90;;;;;;;11.73;60.13;100033.09;4999972;28;102438;-51
2022/03/30 10:38:07;;;;;;;16.42;14.20;;;;;;;11.74;59.66;100031.97;4995912;28;105373;-51
2022/03/30 10:40:34;;;;;;;17.67;14.57;;;;;;;11.73;59.57;100033.91;4991538;28;102284;-51
2022/03/30 10:43:05;;;;;;;15.18;13.57;;;;;;;11.74;60.04;100029.25;4991183;28;102379;-51
2022/03/30 10:45:41;;;;;;;17.38;13.77;;;;;;;11.73;60.00;100033.91;4991830;28;101859;-51
2022/03/30 10:48:16;;;;;;;17.17;13.98;;;;;;;11.74;59.95;100027.34;4990410;28;102743;-51
2022/03/30 10:50:45;;;;;;;17.02;14.13;;;;;;;11.74;59.77;100024.63;4994084;28;102093;-51
2022/03/30 10:53:38;;;;;;;17.02;13.73;;;;;;;11.73;59.72;100033.91;4990405;28;102051;-50
2022/03/30 10:56:28;;;;;;;16.17;13.30;;;;;;;11.74;59.72;100026.53;4999130;28;102391;-51
2022/03/30 10:59:07;;;;;;;16.65;12.95;;;;;;;11.74;59.74;100015.63;4994740;28;103964;-51
2022/03/30 11:01:35;;;;;;;17.83;14.02;;;;;;;11.72;59.41;100018.66;5007471;28;102304;-51
2022/03/30 11:04:05;;;;;;;17.08;13.80;;;;;;;11.73;59.60;100020.28;4999024;28;102269;-51
2022/03/30 11:06:35;;;;;;;16.27;13.18;;;;;;;11.73;59.74;100014.81;4992600;28;102419;-50
2022/03/30 11:09:03;;;;;;;15.57;13.35;;;;;;;11.72;59.56;100010.50;5009526;28;104088;-51
2022/03/30 11:11:35;;;;;;;17.80;13.65;;;;;;;11.72;59.77;100013.22;5010376;28;102503;-51
2022/03/30 11:14:21;;;;;;;16.95;12.80;;;;;;;11.72;59.37;100010.50;5000476;28;102592;-51